sensor_id;sensor_type;location;lat;lon;timestamp;pressure;altitude;pressure_sealevel;temperature;humidity
11888;BME280;6003;42.756;23.130;2023-02-07T00:00:46;150955.22;;;-5.70;89.29
11888;BME280;6003;42.756;23.130;2023-02-07T00:03:13;150947.41;;;-5.73;88.60
11888;BME280;6003;42.756;23.130;2023-02-07T00:05:40;150938.28;;;-5.77;89.37
11888;BME280;6003;42.756;23.130;2023-02-07T00:08:07;150935.69;;;-5.78;89.67
11888;BME280;6003;42.756;23.130;2023-02-07T00:10:34;150929.19;;;-5.80;88.77
11888;BME280;6003;42.756;23.130;2023-02-07T00:13:02;150942.22;;;-5.75;88.56
11888;BME280;6003;42.756;23.130;2023-02-07T00:15:29;150930.47;;;-5.80;89.89
11888;BME280;6003;42.756;23.130;2023-02-07T00:17:56;150938.28;;;-5.77;89.95
11888;BME280;6003;42.756;23.130;2023-02-07T00:20:23;150950.03;;;-5.72;89.74
11888;BME280;6003;42.756;23.130;2023-02-07T00:22:50;150950.03;;;-5.72;90.20
11888;BME280;6003;42.756;23.130;2023-02-07T00:25:19;150942.22;;;-5.75;89.67
11888;BME280;6003;42.756;23.130;2023-02-07T00:27:46;150947.41;;;-5.73;87.93
11888;BME280;6003;42.756;23.130;2023-02-07T00:30:14;150931.75;;;-5.79;87.95
11888;BME280;6003;42.756;23.130;2023-02-07T00:32:41;150952.63;;;-5.71;87.59
11888;BME280;6003;42.756;23.130;2023-02-07T00:35:08;150943.50;;;-5.75;87.71
11888;BME280;6003;42.756;23.130;2023-02-07T00:37:35;150947.41;;;-5.73;88.38
11888;BME280;6003;42.756;23.130;2023-02-07T00:40:02;150939.59;;;-5.76;88.82
11888;BME280;6003;42.756;23.130;2023-02-07T00:42:29;150942.22;;;-5.75;89.13
11888;BME280;6003;42.756;23.130;2023-02-07T00:44:56;150947.41;;;-5.73;89.25
11888;BME280;6003;42.756;23.130;2023-02-07T00:47:24;150939.59;;;-5.76;88.60
11888;BME280;6003;42.756;23.130;2023-02-07T00:49:51;150955.22;;;-5.70;88.12
11888;BME280;6003;42.756;23.130;2023-02-07T00:52:18;150959.16;;;-5.69;87.97
11888;BME280;6003;42.756;23.130;2023-02-07T00:54:45;150965.66;;;-5.66;88.52
11888;BME280;6003;42.756;23.130;2023-02-07T00:57:11;150964.38;;;-5.67;88.20
11888;BME280;6003;42.756;23.130;2023-02-07T01:03:01;150960.44;;;-5.68;89.19
11888;BME280;6003;42.756;23.130;2023-02-07T01:05:28;150950.03;;;-5.72;89.29
11888;BME280;6003;42.756;23.130;2023-02-07T01:07:55;150944.81;;;-5.74;88.50
11888;BME280;6003;42.756;23.130;2023-02-07T01:10:21;150931.75;;;-5.79;88.09
11888;BME280;6003;42.756;23.130;2023-02-07T01:12:49;150935.69;;;-5.78;88.32
11888;BME280;6003;42.756;23.130;2023-02-07T01:15:16;150925.25;;;-5.82;87.86
11888;BME280;6003;42.756;23.130;2023-02-07T01:17:43;150917.44;;;-5.85;88.83
11888;BME280;6003;42.756;23.130;2023-02-07T01:20:12;150913.53;;;-5.86;88.70
11888;BME280;6003;42.756;23.130;2023-02-07T01:22:38;150913.53;;;-5.86;88.86
11888;BME280;6003;42.756;23.130;2023-02-07T01:25:06;150916.13;;;-5.85;88.42
11888;BME280;6003;42.756;23.130;2023-02-07T01:27:34;150905.72;;;-5.90;88.77
11888;BME280;6003;42.756;23.130;2023-02-07T01:30:01;150904.38;;;-5.90;89.40
11888;BME280;6003;42.756;23.130;2023-02-07T01:32:30;150905.72;;;-5.90;89.11
11888;BME280;6003;42.756;23.130;2023-02-07T01:34:57;150903.09;;;-5.91;88.45
11888;BME280;6003;42.756;23.130;2023-02-07T01:37:25;150896.63;;;-5.93;88.79
11888;BME280;6003;42.756;23.130;2023-02-07T01:39:52;150895.31;;;-5.94;89.59
11888;BME280;6003;42.756;23.130;2023-02-07T01:42:22;150895.31;;;-5.94;89.16
11888;BME280;6003;42.756;23.130;2023-02-07T01:45:03;150896.63;;;-5.93;90.46
11888;BME280;6003;42.756;23.130;2023-02-07T01:47:31;150882.28;;;-5.99;90.95
11888;BME280;6003;42.756;23.130;2023-02-07T01:49:59;150882.28;;;-5.99;91.33
11888;BME280;6003;42.756;23.130;2023-02-07T01:52:31;150871.88;;;-6.03;91.55
11888;BME280;6003;42.756;23.130;2023-02-07T01:55:02;150873.19;;;-6.02;91.05
11888;BME280;6003;42.756;23.130;2023-02-07T01:57:29;150835.41;;;-6.17;91.48
11888;BME280;6003;42.756;23.130;2023-02-07T01:59:57;150861.47;;;-6.07;91.39
11888;BME280;6003;42.756;23.130;2023-02-07T02:02:27;150873.19;;;-6.02;91.96
11888;BME280;6003;42.756;23.130;2023-02-07T02:04:55;150882.28;;;-5.99;91.38
11888;BME280;6003;42.756;23.130;2023-02-07T02:07:23;150881.00;;;-5.99;91.30
11888;BME280;6003;42.756;23.130;2023-02-07T02:09:52;150866.66;;;-6.05;90.93
11888;BME280;6003;42.756;23.130;2023-02-07T02:12:31;150865.38;;;-6.05;91.91
11888;BME280;6003;42.756;23.130;2023-02-07T02:15:15;150845.81;;;-6.13;91.64
11888;BME280;6003;42.756;23.130;2023-02-07T02:18:10;150840.63;;;-6.15;92.48
11888;BME280;6003;42.756;23.130;2023-02-07T02:21:16;150830.19;;;-6.19;91.61
11888;BME280;6003;42.756;23.130;2023-02-07T02:24:02;150804.16;;;-6.29;91.62
11888;BME280;6003;42.756;23.130;2023-02-07T02:26:45;150797.63;;;-6.32;92.35
11888;BME280;6003;42.756;23.130;2023-02-07T02:32:57;150788.53;;;-6.36;92.62
11888;BME280;6003;42.756;23.130;2023-02-07T02:35:31;150806.75;;;-6.28;92.73
11888;BME280;6003;42.756;23.130;2023-02-07T02:38:10;150809.31;;;-6.27;92.48
11888;BME280;6003;42.756;23.130;2023-02-07T02:40:45;150823.66;;;-6.22;91.75
11888;BME280;6003;42.756;23.130;2023-02-07T02:43:20;150832.81;;;-6.18;91.88
11888;BME280;6003;42.756;23.130;2023-02-07T02:45:55;150845.81;;;-6.13;91.30
11888;BME280;6003;42.756;23.130;2023-02-07T02:48:25;150851.03;;;-6.11;91.79
11888;BME280;6003;42.756;23.130;2023-02-07T02:50:54;150849.75;;;-6.11;91.06
11888;BME280;6003;42.756;23.130;2023-02-07T02:53:21;150853.63;;;-6.10;91.55
11888;BME280;6003;42.756;23.130;2023-02-07T03:01:53;150860.13;;;-6.07;91.51
11888;BME280;6003;42.756;23.130;2023-02-07T03:07:38;150887.50;;;-5.97;91.57
11888;BME280;6003;42.756;23.130;2023-02-07T03:10:13;150874.47;;;-6.02;91.49
11888;BME280;6003;42.756;23.130;2023-02-07T03:12:49;150884.91;;;-5.98;91.25
11888;BME280;6003;42.756;23.130;2023-02-07T03:15:27;150900.50;;;-5.92;91.21
11888;BME280;6003;42.756;23.130;2023-02-07T03:18:02;150891.44;;;-5.95;90.62
11888;BME280;6003;42.756;23.130;2023-02-07T03:20:33;150897.91;;;-5.93;91.06
11888;BME280;6003;42.756;23.130;2023-02-07T03:23:05;150904.38;;;-5.90;90.98
11888;BME280;6003;42.756;23.130;2023-02-07T03:25:34;150905.72;;;-5.90;90.22
11888;BME280;6003;42.756;23.130;2023-02-07T03:28:02;150905.72;;;-5.90;90.12
11888;BME280;6003;42.756;23.130;2023-02-07T03:30:32;150903.09;;;-5.91;89.87
11888;BME280;6003;42.756;23.130;2023-02-07T03:33:03;150878.41;;;-6.00;91.02
11888;BME280;6003;42.756;23.130;2023-02-07T03:35:39;150874.47;;;-6.02;91.40
11888;BME280;6003;42.756;23.130;2023-02-07T03:41:37;150887.50;;;-5.97;90.76
11888;BME280;6003;42.756;23.130;2023-02-07T03:44:08;150873.19;;;-6.02;90.96
11888;BME280;6003;42.756;23.130;2023-02-07T03:46:36;150864.06;;;-6.06;91.45
11888;BME280;6003;42.756;23.130;2023-02-07T03:49:05;150871.88;;;-6.03;90.99
11888;BME280;6003;42.756;23.130;2023-02-07T03:51:33;150879.69;;;-6.00;91.03
11888;BME280;6003;42.756;23.130;2023-02-07T03:54:00;150874.47;;;-6.02;91.76
11888;BME280;6003;42.756;23.130;2023-02-07T03:56:26;150877.09;;;-6.01;91.95
11888;BME280;6003;42.756;23.130;2023-02-07T03:58:54;150861.47;;;-6.07;91.85
11888;BME280;6003;42.756;23.130;2023-02-07T04:01:21;150878.41;;;-6.00;91.45
11888;BME280;6003;42.756;23.130;2023-02-07T04:03:48;150881.00;;;-5.99;90.68
11888;BME280;6003;42.756;23.130;2023-02-07T04:06:15;150882.28;;;-5.99;91.32
11888;BME280;6003;42.756;23.130;2023-02-07T04:08:42;150875.75;;;-6.01;90.64
11888;BME280;6003;42.756;23.130;2023-02-07T04:11:08;150897.91;;;-5.93;91.35
11888;BME280;6003;42.756;23.130;2023-02-07T04:13:35;150903.09;;;-5.91;90.87
11888;BME280;6003;42.756;23.130;2023-02-07T04:16:05;150916.13;;;-5.85;91.10
11888;BME280;6003;42.756;23.130;2023-02-07T04:18:32;150916.13;;;-5.85;90.86
11888;BME280;6003;42.756;23.130;2023-02-07T04:21:00;150907.03;;;-5.89;91.05
11888;BME280;6003;42.756;23.130;2023-02-07T04:23:27;150907.03;;;-5.89;90.62
11888;BME280;6003;42.756;23.130;2023-02-07T04:25:54;150927.88;;;-5.81;90.10
11888;BME280;6003;42.756;23.130;2023-02-07T04:28:52;150933.06;;;-5.79;90.54
11888;BME280;6003;42.756;23.130;2023-02-07T04:31:20;150947.41;;;-5.73;89.85
11888;BME280;6003;42.756;23.130;2023-02-07T04:33:47;150950.03;;;-5.72;89.92
11888;BME280;6003;42.756;23.130;2023-02-07T04:36:14;150950.03;;;-5.72;90.34
11888;BME280;6003;42.756;23.130;2023-02-07T04:38:41;150952.63;;;-5.71;90.23
11888;BME280;6003;42.756;23.130;2023-02-07T04:41:08;150944.81;;;-5.74;89.64
11888;BME280;6003;42.756;23.130;2023-02-07T04:43:36;150944.81;;;-5.74;90.39
11888;BME280;6003;42.756;23.130;2023-02-07T04:46:04;150959.16;;;-5.69;90.24
11888;BME280;6003;42.756;23.130;2023-02-07T04:48:32;150963.03;;;-5.67;89.90
11888;BME280;6003;42.756;23.130;2023-02-07T04:51:00;150960.44;;;-5.68;90.10
11888;BME280;6003;42.756;23.130;2023-02-07T04:53:27;150963.03;;;-5.67;89.97
11888;BME280;6003;42.756;23.130;2023-02-07T04:55:54;150944.81;;;-5.74;90.12
11888;BME280;6003;42.756;23.130;2023-02-07T04:58:21;150926.53;;;-5.81;90.79
11888;BME280;6003;42.756;23.130;2023-02-07T05:00:48;150921.38;;;-5.83;90.70
11888;BME280;6003;42.756;23.130;2023-02-07T05:03:15;150905.72;;;-5.90;91.30
11888;BME280;6003;42.756;23.130;2023-02-07T05:05:44;150901.81;;;-5.91;91.90
11888;BME280;6003;42.756;23.130;2023-02-07T05:08:11;150903.09;;;-5.91;91.52
11888;BME280;6003;42.756;23.130;2023-02-07T05:10:39;150895.31;;;-5.94;91.75
11888;BME280;6003;42.756;23.130;2023-02-07T05:13:06;150888.81;;;-5.96;91.76
11888;BME280;6003;42.756;23.130;2023-02-07T05:15:33;150891.44;;;-5.95;92.10
11888;BME280;6003;42.756;23.130;2023-02-07T05:18:00;150874.47;;;-6.02;92.16
11888;BME280;6003;42.756;23.130;2023-02-07T05:20:26;150895.31;;;-5.94;91.67
11888;BME280;6003;42.756;23.130;2023-02-07T05:22:55;150856.25;;;-6.09;92.26
11888;BME280;6003;42.756;23.130;2023-02-07T05:25:22;150857.56;;;-6.08;92.43
11888;BME280;6003;42.756;23.130;2023-02-07T05:27:48;150858.84;;;-6.08;91.61
11888;BME280;6003;42.756;23.130;2023-02-07T05:30:16;150856.25;;;-6.09;91.33
11888;BME280;6003;42.756;23.130;2023-02-07T05:32:43;150877.09;;;-6.01;91.31
11888;BME280;6003;42.756;23.130;2023-02-07T05:35:27;150869.28;;;-6.04;91.84
11888;BME280;6003;42.756;23.130;2023-02-07T05:37:55;150887.50;;;-5.97;91.85
11888;BME280;6003;42.756;23.130;2023-02-07T05:40:22;150897.91;;;-5.93;90.96
11888;BME280;6003;42.756;23.130;2023-02-07T05:42:49;150913.53;;;-5.86;91.05
11888;BME280;6003;42.756;23.130;2023-02-07T05:45:15;150904.38;;;-5.90;91.22
11888;BME280;6003;42.756;23.130;2023-02-07T05:47:42;150918.72;;;-5.84;90.89
11888;BME280;6003;42.756;23.130;2023-02-07T05:50:09;150918.72;;;-5.84;90.50
11888;BME280;6003;42.756;23.130;2023-02-07T05:52:36;150923.94;;;-5.82;91.25
11888;BME280;6003;42.756;23.130;2023-02-07T05:55:05;150923.94;;;-5.82;91.00
11888;BME280;6003;42.756;23.130;2023-02-07T05:57:31;150918.72;;;-5.84;91.24
11888;BME280;6003;42.756;23.130;2023-02-07T05:59:58;150923.94;;;-5.82;91.58
11888;BME280;6003;42.756;23.130;2023-02-07T06:02:25;150929.19;;;-5.80;92.20
11888;BME280;6003;42.756;23.130;2023-02-07T06:04:52;150944.81;;;-5.74;92.57
11888;BME280;6003;42.756;23.130;2023-02-07T06:07:19;150942.22;;;-5.75;92.67
11888;BME280;6003;42.756;23.130;2023-02-07T06:09:45;150955.22;;;-5.70;92.32
11888;BME280;6003;42.756;23.130;2023-02-07T06:12:13;150961.75;;;-5.68;92.28
11888;BME280;6003;42.756;23.130;2023-02-07T06:14:40;150981.31;;;-5.60;92.86
11888;BME280;6003;42.756;23.130;2023-02-07T06:17:07;150966.97;;;-5.65;93.08
11888;BME280;6003;42.756;23.130;2023-02-07T06:19:34;150978.72;;;-5.61;93.16
11888;BME280;6003;42.756;23.130;2023-02-07T06:22:01;150983.91;;;-5.59;93.20
11888;BME280;6003;42.756;23.130;2023-02-07T06:24:27;150981.31;;;-5.60;92.77
11888;BME280;6003;42.756;23.130;2023-02-07T06:26:54;150994.34;;;-5.55;92.33
11888;BME280;6003;42.756;23.130;2023-02-07T06:29:22;150986.53;;;-5.58;92.20
11888;BME280;6003;42.756;23.130;2023-02-07T06:31:49;150986.53;;;-5.58;92.82
11888;BME280;6003;42.756;23.130;2023-02-07T06:34:16;150978.72;;;-5.61;92.67
11888;BME280;6003;42.756;23.130;2023-02-07T06:36:42;150996.94;;;-5.54;93.46
11888;BME280;6003;42.756;23.130;2023-02-07T06:39:09;151006.06;;;-5.50;93.22
11888;BME280;6003;42.756;23.130;2023-02-07T06:41:36;151015.22;;;-5.47;93.19
11888;BME280;6003;42.756;23.130;2023-02-07T06:44:04;150996.94;;;-5.54;93.22
11888;BME280;6003;42.756;23.130;2023-02-07T06:46:32;150973.47;;;-5.63;93.30
11888;BME280;6003;42.756;23.130;2023-02-07T06:48:59;151023.03;;;-5.43;93.32
11888;BME280;6003;42.756;23.130;2023-02-07T06:51:26;151028.22;;;-5.41;93.85
11888;BME280;6003;42.756;23.130;2023-02-07T06:53:53;151023.03;;;-5.43;94.03
11888;BME280;6003;42.756;23.130;2023-02-07T06:56:19;151036.03;;;-5.38;94.01
11888;BME280;6003;42.756;23.130;2023-02-07T06:58:46;151036.03;;;-5.38;93.91
11888;BME280;6003;42.756;23.130;2023-02-07T07:01:13;151024.31;;;-5.43;94.06
11888;BME280;6003;42.756;23.130;2023-02-07T07:03:45;151051.66;;;-5.32;93.97
11888;BME280;6003;42.756;23.130;2023-02-07T07:06:12;151064.72;;;-5.27;94.58
11888;BME280;6003;42.756;23.130;2023-02-07T07:08:48;151058.19;;;-5.30;94.04
11888;BME280;6003;42.756;23.130;2023-02-07T07:11:16;151067.34;;;-5.26;94.38
11888;BME280;6003;42.756;23.130;2023-02-07T07:13:43;151081.69;;;-5.20;94.53
11888;BME280;6003;42.756;23.130;2023-02-07T07:16:10;151093.41;;;-5.16;94.59
11888;BME280;6003;42.756;23.130;2023-02-07T07:18:36;151119.50;;;-5.06;94.26
11888;BME280;6003;42.756;23.130;2023-02-07T07:21:05;151140.38;;;-4.97;94.53
11888;BME280;6003;42.756;23.130;2023-02-07T07:23:32;151175.56;;;-4.84;94.08
11888;BME280;6003;42.756;23.130;2023-02-07T07:25:59;151208.19;;;-4.71;94.04
11888;BME280;6003;42.756;23.130;2023-02-07T07:28:26;151213.44;;;-4.69;93.15
11888;BME280;6003;42.756;23.130;2023-02-07T07:30:53;151218.63;;;-4.67;93.20
11888;BME280;6003;42.756;23.130;2023-02-07T07:33:20;151244.72;;;-4.57;92.61
11888;BME280;6003;42.756;23.130;2023-02-07T07:35:46;151268.22;;;-4.47;92.66
11888;BME280;6003;42.756;23.130;2023-02-07T07:38:15;151268.22;;;-4.47;91.77
11888;BME280;6003;42.756;23.130;2023-02-07T07:40:41;151252.56;;;-4.54;91.83
11888;BME280;6003;42.756;23.130;2023-02-07T07:43:08;151294.31;;;-4.37;91.62
11888;BME280;6003;42.756;23.130;2023-02-07T07:45:35;151353.06;;;-4.14;91.30
11888;BME280;6003;42.756;23.130;2023-02-07T07:48:02;151396.09;;;-3.97;90.93
11888;BME280;6003;42.756;23.130;2023-02-07T07:50:29;151453.53;;;-3.75;90.67
11888;BME280;6003;42.756;23.130;2023-02-07T07:52:55;151471.84;;;-3.68;89.57
11888;BME280;6003;42.756;23.130;2023-02-07T07:55:23;151458.78;;;-3.73;88.85
11888;BME280;6003;42.756;23.130;2023-02-07T07:57:51;151501.88;;;-3.56;89.02
11888;BME280;6003;42.756;23.130;2023-02-07T08:00:19;151555.41;;;-3.35;88.32
11888;BME280;6003;42.756;23.130;2023-02-07T08:02:45;151611.59;;;-3.13;87.31
11888;BME280;6003;42.756;23.130;2023-02-07T08:05:12;151667.75;;;-2.91;86.69
11888;BME280;6003;42.756;23.130;2023-02-07T08:07:39;151683.47;;;-2.85;85.52
11888;BME280;6003;42.756;23.130;2023-02-07T08:10:07;151720.00;;;-2.70;85.95
11888;BME280;6003;42.756;23.130;2023-02-07T08:12:35;151720.00;;;-2.70;85.44
11888;BME280;6003;42.756;23.130;2023-02-07T08:15:02;151695.19;;;-2.80;84.28
11888;BME280;6003;42.756;23.130;2023-02-07T08:17:29;151714.81;;;-2.73;83.40
11888;BME280;6003;42.756;23.130;2023-02-07T08:19:55;151750.13;;;-2.59;83.15
11888;BME280;6003;42.756;23.130;2023-02-07T08:22:24;151879.53;;;-2.08;83.22
11888;BME280;6003;42.756;23.130;2023-02-07T08:24:50;151874.28;;;-2.10;81.34
11888;BME280;6003;42.756;23.130;2023-02-07T08:27:17;151897.84;;;-2.01;81.14
11888;BME280;6003;42.756;23.130;2023-02-07T08:29:45;151861.25;;;-2.15;80.47
11888;BME280;6003;42.756;23.130;2023-02-07T08:32:12;151875.63;;;-2.10;81.72
11888;BME280;6003;42.756;23.130;2023-02-07T08:34:39;151903.06;;;-1.99;81.61
11888;BME280;6003;42.756;23.130;2023-02-07T08:37:06;151913.53;;;-1.95;81.33
11888;BME280;6003;42.756;23.130;2023-02-07T08:39:34;151918.75;;;-1.93;81.44
11888;BME280;6003;42.756;23.130;2023-02-07T08:42:01;151956.72;;;-1.78;80.98
11888;BME280;6003;42.756;23.130;2023-02-07T08:44:29;151944.91;;;-1.83;81.63
11888;BME280;6003;42.756;23.130;2023-02-07T08:46:58;151926.63;;;-1.90;81.07
11888;BME280;6003;42.756;23.130;2023-02-07T08:49:25;152028.63;;;-1.50;81.00
11888;BME280;6003;42.756;23.130;2023-02-07T08:51:51;152058.75;;;-1.38;80.16
11888;BME280;6003;42.756;23.130;2023-02-07T08:54:18;152104.56;;;-1.20;79.76
11888;BME280;6003;42.756;23.130;2023-02-07T08:56:45;152180.47;;;-0.91;78.42
11888;BME280;6003;42.756;23.130;2023-02-07T08:59:12;152210.56;;;-0.79;78.27
11888;BME280;6003;42.756;23.130;2023-02-07T09:01:39;152248.53;;;-0.64;76.67
11888;BME280;6003;42.756;23.130;2023-02-07T09:04:07;152283.88;;;-0.50;74.22
11888;BME280;6003;42.756;23.130;2023-02-07T09:06:36;152283.88;;;-0.50;74.44
11888;BME280;6003;42.756;23.130;2023-02-07T09:09:13;152252.47;;;-0.62;74.96
11888;BME280;6003;42.756;23.130;2023-02-07T09:11:39;152138.56;;;-1.07;75.71
11888;BME280;6003;42.756;23.130;2023-02-07T09:14:06;152135.94;;;-1.08;76.81
11888;BME280;6003;42.756;23.130;2023-02-07T09:16:33;152167.34;;;-0.96;75.44
11888;BME280;6003;42.756;23.130;2023-02-07T09:19:00;152133.34;;;-1.09;76.23
11888;BME280;6003;42.756;23.130;2023-02-07T09:21:28;152159.50;;;-0.99;75.29
11888;BME280;6003;42.756;23.130;2023-02-07T09:23:57;152117.66;;;-1.15;75.53
11888;BME280;6003;42.756;23.130;2023-02-07T09:26:24;152180.47;;;-0.91;76.78
11888;BME280;6003;42.756;23.130;2023-02-07T09:28:51;152183.06;;;-0.89;74.55
11888;BME280;6003;42.756;23.130;2023-02-07T09:31:18;152146.41;;;-1.04;74.08
11888;BME280;6003;42.756;23.130;2023-02-07T09:33:46;152128.09;;;-1.11;76.65
11888;BME280;6003;42.756;23.130;2023-02-07T09:36:17;152151.66;;;-1.02;75.76
11888;BME280;6003;42.756;23.130;2023-02-07T09:38:46;152149.06;;;-1.03;76.85
11888;BME280;6003;42.756;23.130;2023-02-07T09:41:21;152099.31;;;-1.22;77.78
11888;BME280;6003;42.756;23.130;2023-02-07T09:44:12;151993.34;;;-1.64;77.81
11888;BME280;6003;42.756;23.130;2023-02-07T09:46:44;151985.50;;;-1.67;78.94
11888;BME280;6003;42.756;23.130;2023-02-07T09:52:18;152014.22;;;-1.55;77.92
11888;BME280;6003;42.756;23.130;2023-02-07T09:54:50;151947.53;;;-1.82;79.45
11888;BME280;6003;42.756;23.130;2023-02-07T09:57:21;151913.53;;;-1.95;79.36
11888;BME280;6003;42.756;23.130;2023-02-07T09:59:53;151839.00;;;-2.24;79.16
11888;BME280;6003;42.756;23.130;2023-02-07T10:02:26;151866.44;;;-2.13;79.70
11888;BME280;6003;42.756;23.130;2023-02-07T10:04:59;151848.16;;;-2.20;80.37
11888;BME280;6003;42.756;23.130;2023-02-07T10:07:27;151767.09;;;-2.52;80.73
11888;BME280;6003;42.756;23.130;2023-02-07T10:09:55;151774.94;;;-2.49;82.28
11888;BME280;6003;42.756;23.130;2023-02-07T10:12:47;151807.59;;;-2.36;83.63
11888;BME280;6003;42.756;23.130;2023-02-07T10:15:40;151856.00;;;-2.17;83.27
11888;BME280;6003;42.756;23.130;2023-02-07T10:18:21;151816.78;;;-2.33;82.28
11888;BME280;6003;42.756;23.130;2023-02-07T10:20:58;151848.16;;;-2.20;82.45
11888;BME280;6003;42.756;23.130;2023-02-07T10:23:38;151858.59;;;-2.16;81.31
11888;BME280;6003;42.756;23.130;2023-02-07T10:26:19;151887.38;;;-2.05;80.34
11888;BME280;6003;42.756;23.130;2023-02-07T10:29:14;151883.47;;;-2.07;79.52
11888;BME280;6003;42.756;23.130;2023-02-07T10:31:47;151913.53;;;-1.95;79.51
11888;BME280;6003;42.756;23.130;2023-02-07T10:34:17;151903.06;;;-1.99;78.99
11888;BME280;6003;42.756;23.130;2023-02-07T10:36:48;151876.94;;;-2.09;78.81
11888;BME280;6003;42.756;23.130;2023-02-07T10:39:18;151854.69;;;-2.18;80.12
11888;BME280;6003;42.756;23.130;2023-02-07T10:41:49;151832.47;;;-2.27;79.95
11888;BME280;6003;42.756;23.130;2023-02-07T10:44:18;151858.59;;;-2.16;80.42
11888;BME280;6003;42.756;23.130;2023-02-07T10:46:50;151897.84;;;-2.01;79.60
11888;BME280;6003;42.756;23.130;2023-02-07T10:49:21;152009.03;;;-1.57;78.23
11888;BME280;6003;42.756;23.130;2023-02-07T10:51:49;152043.03;;;-1.44;77.18
11888;BME280;6003;42.756;23.130;2023-02-07T10:54:17;152098.00;;;-1.23;76.63
11888;BME280;6003;42.756;23.130;2023-02-07T10:56:48;152124.16;;;-1.13;75.96
11888;BME280;6003;42.756;23.130;2023-02-07T10:59:31;152108.44;;;-1.19;75.32
11888;BME280;6003;42.756;23.130;2023-02-07T11:02:00;152162.16;;;-0.98;76.46
11888;BME280;6003;42.756;23.130;2023-02-07T11:04:34;152300.91;;;-0.43;75.93
11888;BME280;6003;42.756;23.130;2023-02-07T11:07:03;152445.00;;;0.13;73.62
11888;BME280;6003;42.756;23.130;2023-02-07T11:09:31;152497.44;;;0.33;72.03
11888;BME280;6003;42.756;23.130;2023-02-07T11:12:13;152425.34;;;0.05;71.25
11888;BME280;6003;42.756;23.130;2023-02-07T11:14:58;152371.66;;;-0.16;71.85
11888;BME280;6003;42.756;23.130;2023-02-07T11:17:26;152306.16;;;-0.41;71.55
11888;BME280;6003;42.756;23.130;2023-02-07T11:19:53;152282.59;;;-0.51;71.31
11888;BME280;6003;42.756;23.130;2023-02-07T11:22:21;152274.72;;;-0.54;73.13
11888;BME280;6003;42.756;23.130;2023-02-07T11:24:51;152253.78;;;-0.62;73.46
11888;BME280;6003;42.756;23.130;2023-02-07T11:27:21;152249.81;;;-0.63;75.85
11888;BME280;6003;42.756;23.130;2023-02-07T11:29:52;152128.09;;;-1.11;74.63
11888;BME280;6003;42.756;23.130;2023-02-07T11:32:21;152117.66;;;-1.15;76.29
11888;BME280;6003;42.756;23.130;2023-02-07T11:34:51;152167.34;;;-0.96;75.77
11888;BME280;6003;42.756;23.130;2023-02-07T11:37:24;152200.09;;;-0.83;76.38
11888;BME280;6003;42.756;23.130;2023-02-07T11:39:53;152286.50;;;-0.49;74.21
11888;BME280;6003;42.756;23.130;2023-02-07T11:42:24;152350.69;;;-0.24;72.53
11888;BME280;6003;42.756;23.130;2023-02-07T11:44:51;152376.91;;;-0.14;73.38
11888;BME280;6003;42.756;23.130;2023-02-07T11:47:20;152303.56;;;-0.42;74.14
11888;BME280;6003;42.756;23.130;2023-02-07T11:49:49;152268.19;;;-0.56;73.53
11888;BME280;6003;42.756;23.130;2023-02-07T11:52:17;152264.22;;;-0.58;74.64
11888;BME280;6003;42.756;23.130;2023-02-07T11:54:50;152183.06;;;-0.89;75.66
11888;BME280;6003;42.756;23.130;2023-02-07T11:57:18;152188.31;;;-0.87;77.05
11888;BME280;6003;42.756;23.130;2023-02-07T12:00:00;152171.31;;;-0.94;75.58
11888;BME280;6003;42.756;23.130;2023-02-07T12:02:28;152122.84;;;-1.13;76.57
11888;BME280;6003;42.756;23.130;2023-02-07T12:05:08;151942.31;;;-1.84;76.72
11888;BME280;6003;42.756;23.130;2023-02-07T12:07:41;151900.44;;;-2.00;78.79
11888;BME280;6003;42.756;23.130;2023-02-07T12:10:12;151900.44;;;-2.00;78.71
11888;BME280;6003;42.756;23.130;2023-02-07T12:12:42;151862.53;;;-2.15;78.98
11888;BME280;6003;42.756;23.130;2023-02-07T12:15:17;151900.44;;;-2.00;78.68
11888;BME280;6003;42.756;23.130;2023-02-07T12:17:52;151989.41;;;-1.65;78.73
11888;BME280;6003;42.756;23.130;2023-02-07T12:20:24;152062.66;;;-1.37;77.22
11888;BME280;6003;42.756;23.130;2023-02-07T12:22:56;152112.41;;;-1.17;77.03
11888;BME280;6003;42.756;23.130;2023-02-07T12:25:27;152094.06;;;-1.24;76.14
11888;BME280;6003;42.756;23.130;2023-02-07T12:27:58;152046.97;;;-1.43;76.94
11888;BME280;6003;42.756;23.130;2023-02-07T12:30:32;151981.53;;;-1.68;76.97
11888;BME280;6003;42.756;23.130;2023-02-07T12:33:08;152011.63;;;-1.56;76.51
11888;BME280;6003;42.756;23.130;2023-02-07T12:35:40;152040.41;;;-1.45;74.71
11888;BME280;6003;42.756;23.130;2023-02-07T12:38:15;152086.22;;;-1.27;75.71
11888;BME280;6003;42.756;23.130;2023-02-07T12:40:45;152151.66;;;-1.02;75.41
11888;BME280;6003;42.756;23.130;2023-02-07T12:43:17;152185.72;;;-0.88;74.32
11888;BME280;6003;42.756;23.130;2023-02-07T12:46:15;152207.97;;;-0.80;73.29
11888;BME280;6003;42.756;23.130;2023-02-07T12:49:11;152196.16;;;-0.84;74.88
11888;BME280;6003;42.756;23.130;2023-02-07T12:51:50;152177.84;;;-0.92;74.71
11888;BME280;6003;42.756;23.130;2023-02-07T12:54:31;152164.75;;;-0.97;73.74
11888;BME280;6003;42.756;23.130;2023-02-07T12:57:09;152113.69;;;-1.17;72.31
11888;BME280;6003;42.756;23.130;2023-02-07T12:59:50;152070.50;;;-1.33;71.83
11888;BME280;6003;42.756;23.130;2023-02-07T13:02:38;152081.00;;;-1.29;71.42
11888;BME280;6003;42.756;23.130;2023-02-07T13:08:15;152075.75;;;-1.31;72.04
11888;BME280;6003;42.756;23.130;2023-02-07T13:10:52;152083.59;;;-1.28;72.05
11888;BME280;6003;42.756;23.130;2023-02-07T13:13:26;152057.41;;;-1.39;73.83
11888;BME280;6003;42.756;23.130;2023-02-07T13:15:57;152057.41;;;-1.39;73.08
11888;BME280;6003;42.756;23.130;2023-02-07T13:18:35;152053.50;;;-1.40;73.44
11888;BME280;6003;42.756;23.130;2023-02-07T13:21:11;152049.56;;;-1.42;74.32
11888;BME280;6003;42.756;23.130;2023-02-07T13:23:44;152020.78;;;-1.53;73.35
11888;BME280;6003;42.756;23.130;2023-02-07T13:26:14;152039.13;;;-1.46;75.16
11888;BME280;6003;42.756;23.130;2023-02-07T13:28:47;152032.56;;;-1.48;73.19
11888;BME280;6003;42.756;23.130;2023-02-07T13:31:18;152044.38;;;-1.44;74.56